createdAt,value
2018-06-19T00:00:45.754Z,16.90
2018-06-19T00:01:45.752Z,17.20
2018-06-19T00:02:45.745Z,17.10
2018-06-19T00:03:45.743Z,17.00
2018-06-19T00:04:45.740Z,17.50
2018-06-19T00:05:45.739Z,17.00
2018-06-19T00:06:45.740Z,17.40
2018-06-19T00:07:45.737Z,16.40
2018-06-19T00:08:45.736Z,17.50
2018-06-19T00:09:45.734Z,17.50
2018-06-19T00:10:45.728Z,16.90
2018-06-19T00:11:45.726Z,17.60
2018-06-19T00:12:45.728Z,17.70
2018-06-19T00:13:45.726Z,17.30
2018-06-19T00:14:45.721Z,17.20
2018-06-19T00:15:45.717Z,18.00
2018-06-19T00:16:45.722Z,17.20
2018-06-19T00:17:45.712Z,17.40
2018-06-19T00:18:45.715Z,16.30
2018-06-19T00:19:45.711Z,17.60
2018-06-19T00:20:45.711Z,16.50
2018-06-19T00:21:45.707Z,16.70
2018-06-19T00:22:45.701Z,17.60
2018-06-19T00:23:45.699Z,16.70
2018-06-19T00:24:45.697Z,17.60
2018-06-19T00:25:45.701Z,16.50
2018-06-19T00:26:45.699Z,17.40
2018-06-19T00:27:45.696Z,18.10
2018-06-19T00:28:45.688Z,16.50
2018-06-19T00:29:45.686Z,17.50
2018-06-19T00:30:45.690Z,17.60
2018-06-19T00:31:45.690Z,17.10
2018-06-19T00:32:45.683Z,17.70
2018-06-19T00:33:45.683Z,17.80
2018-06-19T00:34:45.675Z,16.80
2018-06-19T00:35:45.671Z,17.70
2018-06-19T00:36:45.669Z,16.90
2018-06-19T00:37:45.669Z,16.00
2018-06-19T00:38:45.670Z,16.40
2018-06-19T00:39:45.667Z,16.70
2018-06-19T00:40:45.666Z,17.40
2018-06-19T00:41:45.664Z,16.40
2018-06-19T00:42:45.657Z,15.70
2018-06-19T00:43:45.655Z,17.40
2018-06-19T00:44:45.656Z,17.70
2018-06-19T00:45:45.656Z,16.90
2018-06-19T00:46:45.651Z,17.90
2018-06-19T00:47:45.644Z,17.30
2018-06-19T00:48:45.643Z,17.20
2018-06-19T00:49:45.642Z,16.60
2018-06-19T00:50:45.647Z,17.70
2018-06-19T00:51:45.639Z,17.50
2018-06-19T00:52:45.639Z,17.30
2018-06-19T00:53:45.637Z,16.40
2018-06-19T00:54:45.629Z,15.70
2018-06-19T00:55:45.626Z,17.70
2018-06-19T00:56:45.637Z,17.80
2018-06-19T00:57:45.622Z,17.90
2018-06-19T00:58:45.628Z,16.40
2018-06-19T00:59:45.660Z,16.90
2018-06-19T01:00:45.615Z,17.00
2018-06-19T01:01:45.612Z,18.10
2018-06-19T01:02:45.616Z,17.80
2018-06-19T01:03:45.612Z,17.80
2018-06-19T01:04:45.610Z,17.70
2018-06-19T01:05:45.608Z,17.30
2018-06-19T01:06:45.607Z,17.00
2018-06-19T01:07:45.598Z,16.90
2018-06-19T01:08:45.599Z,18.10
2018-06-19T01:09:45.593Z,18.10
2018-06-19T01:10:45.596Z,18.30
2018-06-19T01:11:45.598Z,18.00
2018-06-19T01:12:45.592Z,18.40
2018-06-19T01:13:45.590Z,17.90
2018-06-19T01:14:45.582Z,17.80
2018-06-19T01:15:45.581Z,17.60
2018-06-19T01:16:45.582Z,17.60
2018-06-19T01:17:45.580Z,18.20
2018-06-19T01:18:45.572Z,18.00
2018-06-19T01:19:45.571Z,16.80
2018-06-19T01:20:45.568Z,16.90
2018-06-19T01:21:45.566Z,16.70
2018-06-19T01:22:45.568Z,17.50
2018-06-19T01:23:45.564Z,18.40
2018-06-19T01:24:45.562Z,17.40
2018-06-19T01:25:45.560Z,17.60
2018-06-19T01:26:45.555Z,16.60
2018-06-19T01:27:45.551Z,18.10
2018-06-19T01:28:45.550Z,17.20
2018-06-19T01:29:45.546Z,18.10
2018-06-19T01:30:45.548Z,18.30
2018-06-19T01:31:45.549Z,17.70
2018-06-19T01:32:45.538Z,17.80
2018-06-19T01:33:45.535Z,18.20
2018-06-19T01:34:45.539Z,17.80
2018-06-19T01:35:45.535Z,17.90
2018-06-19T01:36:45.531Z,16.50
2018-06-19T01:37:45.530Z,16.10
2018-06-19T01:38:45.523Z,17.00
2018-06-19T01:39:45.524Z,17.50
2018-06-19T01:40:45.522Z,17.20
2018-06-19T01:41:45.517Z,18.70
2018-06-19T01:42:45.521Z,17.80
2018-06-19T01:43:45.516Z,16.80
2018-06-19T01:44:45.513Z,17.00
2018-06-19T01:45:45.510Z,16.90
2018-06-19T01:46:45.503Z,17.10
2018-06-19T01:47:45.499Z,17.90
2018-06-19T01:48:45.506Z,17.90
2018-06-19T01:49:45.499Z,17.30
2018-06-19T01:50:45.496Z,18.40
2018-06-19T01:51:45.489Z,16.60
2018-06-19T01:52:45.487Z,16.80
2018-06-19T01:53:45.486Z,17.30
2018-06-19T01:54:45.486Z,17.40
2018-06-19T01:55:45.486Z,18.90
2018-06-19T01:56:45.485Z,18.00
2018-06-19T01:57:45.480Z,17.70
2018-06-19T01:58:45.472Z,18.90
2018-06-19T01:59:45.468Z,18.70
2018-06-19T02:00:45.467Z,18.40
2018-06-19T02:01:45.464Z,18.30
2018-06-19T02:02:45.466Z,19.50
2018-06-19T02:03:45.465Z,20.10
2018-06-19T02:04:45.456Z,18.80
2018-06-19T02:05:45.456Z,20.00
2018-06-19T02:06:45.456Z,18.70
2018-06-19T02:07:45.453Z,18.50
2018-06-19T02:08:45.451Z,21.90
2018-06-19T02:09:45.448Z,20.70
2018-06-19T02:10:45.441Z,19.20
2018-06-19T02:11:45.442Z,21.30
2018-06-19T02:12:45.435Z,21.10
2018-06-19T02:13:45.433Z,20.40
2018-06-19T02:14:45.436Z,20.00
2018-06-19T02:15:45.432Z,20.00
2018-06-19T02:16:45.429Z,19.50
2018-06-19T02:17:45.426Z,18.70
2018-06-19T02:18:45.419Z,17.80
2018-06-19T02:19:45.416Z,18.60
2018-06-19T02:20:45.419Z,19.20
2018-06-19T02:21:45.415Z,18.80
2018-06-19T02:22:45.409Z,18.80
2018-06-19T02:23:45.405Z,18.40
2018-06-19T02:24:45.403Z,17.60
2018-06-19T02:25:45.402Z,17.10
2018-06-19T02:26:45.403Z,17.70
2018-06-19T02:27:45.400Z,17.20
2018-06-19T02:28:45.398Z,16.40
2018-06-19T02:29:45.396Z,16.50
2018-06-19T02:30:45.389Z,18.00
2018-06-19T02:31:45.386Z,17.40
2018-06-19T02:32:45.385Z,18.30
2018-06-19T02:33:45.380Z,17.10
2018-06-19T02:34:45.384Z,17.00
2018-06-19T02:35:45.385Z,16.30
2018-06-19T02:36:45.375Z,16.40
2018-06-19T02:37:45.377Z,16.40
2018-06-19T02:38:45.374Z,16.50
2018-06-19T02:39:45.371Z,16.40
2018-06-19T02:40:45.370Z,16.30
2018-06-19T02:41:45.368Z,17.60
2018-06-19T02:42:45.367Z,17.60
2018-06-19T02:43:45.357Z,17.90
2018-06-19T02:44:45.355Z,16.00
2018-06-19T02:45:45.353Z,16.20
2018-06-19T02:46:45.360Z,16.20
2018-06-19T02:47:45.356Z,16.30
2018-06-19T02:48:45.351Z,17.00
2018-06-19T02:49:45.349Z,16.40
2018-06-19T02:50:45.414Z,15.50
2018-06-19T02:51:45.338Z,16.40
2018-06-19T02:52:45.342Z,17.50
2018-06-19T02:53:45.340Z,16.50
2018-06-19T02:54:45.332Z,17.30
2018-06-19T02:55:45.329Z,17.00
2018-06-19T02:56:45.328Z,16.60
2018-06-19T02:57:45.329Z,16.30
2018-06-19T02:58:45.327Z,16.60
2018-06-19T02:59:45.324Z,17.20
2018-06-19T03:00:45.322Z,16.30
2018-06-19T03:01:45.320Z,17.40
2018-06-19T03:02:45.314Z,15.40
2018-06-19T03:03:45.313Z,15.30
2018-06-19T03:04:45.313Z,16.50
2018-06-19T03:05:45.309Z,16.20
2018-06-19T03:06:45.312Z,16.40
2018-06-19T03:07:45.306Z,16.10
2018-06-19T03:08:45.299Z,16.50
2018-06-19T03:09:45.298Z,16.70
2018-06-19T03:10:45.301Z,16.20
2018-06-19T03:11:45.296Z,16.80
2018-06-19T03:12:45.294Z,16.40
2018-06-19T03:13:45.292Z,16.70
2018-06-19T03:14:45.286Z,16.50
2018-06-19T03:15:45.283Z,16.90
2018-06-19T03:16:45.281Z,16.50
2018-06-19T03:17:45.279Z,16.70
2018-06-19T03:18:45.281Z,15.90
2018-06-19T03:19:45.279Z,16.10
2018-06-19T03:20:45.277Z,17.00
2018-06-19T03:21:45.275Z,16.40
2018-06-19T03:22:45.267Z,16.10
2018-06-19T03:23:45.264Z,16.30
2018-06-19T03:24:45.268Z,16.60
2018-06-19T03:25:45.265Z,17.00
2018-06-19T03:26:45.259Z,16.50
2018-06-19T03:27:45.256Z,15.80
2018-06-19T03:28:45.252Z,15.70
2018-06-19T03:29:45.251Z,16.20
2018-06-19T03:30:45.253Z,16.90
2018-06-19T03:31:45.251Z,16.40
2018-06-19T03:32:45.249Z,15.50
2018-06-19T03:33:45.249Z,15.20
2018-06-19T03:34:45.240Z,15.80
2018-06-19T03:35:45.237Z,16.90
2018-06-19T03:36:45.234Z,16.30
2018-06-19T03:37:45.233Z,16.40
2018-06-19T03:38:45.236Z,17.40
2018-06-19T03:39:45.233Z,15.70
2018-06-19T03:40:45.226Z,17.10
2018-06-19T03:41:45.229Z,15.90
2018-06-19T03:42:45.225Z,16.40
2018-06-19T03:43:45.225Z,16.10
2018-06-19T03:44:45.220Z,16.50
2018-06-19T03:45:45.218Z,15.80
2018-06-19T03:46:45.212Z,17.50
2018-06-19T03:47:45.208Z,16.90
2018-06-19T03:48:45.207Z,16.30
2018-06-19T03:49:45.205Z,17.10
2018-06-19T03:50:45.207Z,16.10
2018-06-19T03:51:45.205Z,16.30
2018-06-19T03:52:45.202Z,15.30
2018-06-19T03:53:45.200Z,16.20
2018-06-19T03:54:45.194Z,17.60
2018-06-19T03:55:45.193Z,16.80
2018-06-19T03:56:45.193Z,17.40
2018-06-19T03:57:45.194Z,16.40
2018-06-19T03:58:45.185Z,16.40
2018-06-19T03:59:45.182Z,16.90
2018-06-19T04:00:45.181Z,15.60
2018-06-19T04:01:45.179Z,15.80
2018-06-19T04:02:45.181Z,16.00
2018-06-19T04:03:45.178Z,16.70
2018-06-19T04:04:45.176Z,16.80
2018-06-19T04:05:45.174Z,17.40
2018-06-19T04:06:45.167Z,17.20
2018-06-19T04:07:45.167Z,17.40
2018-06-19T04:08:45.162Z,16.20
2018-06-19T04:09:45.160Z,16.90
2018-06-19T04:10:45.163Z,15.70
2018-06-19T04:11:45.160Z,17.50
2018-06-19T04:12:45.153Z,16.80
2018-06-19T04:13:45.153Z,16.60
2018-06-19T04:14:45.158Z,18.80
2018-06-19T04:15:45.151Z,18.00
2018-06-19T04:16:45.150Z,16.40
2018-06-19T04:17:45.150Z,17.30
2018-06-19T04:18:45.141Z,16.90
2018-06-19T04:19:45.139Z,16.10
2018-06-19T04:20:45.136Z,16.40
2018-06-19T04:21:45.135Z,16.70
2018-06-19T04:22:45.138Z,17.40
2018-06-19T04:23:45.136Z,17.90
2018-06-19T04:24:45.132Z,18.00
2018-06-19T04:25:45.131Z,17.80
2018-06-19T04:26:45.125Z,16.40
2018-06-19T04:27:45.122Z,16.10
2018-06-19T04:28:45.124Z,17.70
2018-06-19T04:29:45.122Z,17.90
2018-06-19T04:30:45.116Z,17.20
2018-06-19T04:31:45.115Z,17.80
2018-06-19T04:32:45.112Z,16.30
2018-06-19T04:33:45.111Z,17.70
2018-06-19T04:34:45.114Z,16.30
2018-06-19T04:35:45.111Z,17.50
2018-06-19T04:36:45.115Z,16.60
2018-06-19T04:37:45.107Z,17.20
2018-06-19T04:38:45.101Z,18.00
2018-06-19T04:39:45.098Z,17.70
2018-06-19T04:40:45.096Z,18.50
2018-06-19T04:41:45.095Z,18.10
2018-06-19T04:42:45.097Z,20.60
2018-06-19T04:43:45.094Z,17.70
2018-06-19T04:44:45.088Z,18.20
2018-06-19T04:45:45.086Z,18.60
2018-06-19T04:46:45.090Z,18.30
2018-06-19T04:47:45.086Z,18.00
2018-06-19T04:48:45.086Z,20.50
2018-06-19T04:49:45.111Z,17.90
2018-06-19T04:50:45.077Z,16.90
2018-06-19T04:51:45.087Z,19.80
2018-06-19T04:52:45.073Z,17.10
2018-06-19T04:53:45.107Z,17.30
2018-06-19T04:54:45.074Z,19.00
2018-06-19T04:55:45.071Z,19.50
2018-06-19T04:56:45.073Z,19.60
2018-06-19T04:57:45.069Z,20.40
2018-06-19T04:58:45.062Z,19.80
2018-06-19T04:59:45.059Z,23.40
2018-06-19T05:00:45.068Z,22.40
2018-06-19T05:01:45.063Z,18.60
2018-06-19T05:02:45.054Z,21.10
2018-06-19T05:03:45.088Z,20.40
2018-06-19T05:04:45.052Z,20.10
2018-06-19T05:05:45.055Z,21.00
2018-06-19T05:06:45.052Z,22.60
2018-06-19T05:07:45.048Z,22.40
2018-06-19T05:08:45.047Z,19.20
2018-06-19T05:09:45.045Z,20.10
2018-06-19T05:10:45.040Z,20.70
2018-06-19T05:11:45.040Z,18.70
2018-06-19T05:12:45.043Z,18.40
2018-06-19T05:13:45.034Z,18.70
2018-06-19T05:14:45.038Z,18.50
2018-06-19T05:15:45.035Z,19.30
2018-06-19T05:16:45.032Z,19.30
2018-06-19T05:17:45.027Z,19.80
2018-06-19T05:18:45.032Z,20.00
2018-06-19T05:19:45.028Z,21.40
2018-06-19T05:20:45.031Z,20.20
2018-06-19T05:21:45.023Z,21.50
2018-06-19T05:22:45.020Z,20.50
2018-06-19T05:23:45.016Z,21.00
2018-06-19T05:24:45.013Z,19.90
2018-06-19T05:25:45.011Z,21.20
2018-06-19T05:26:45.015Z,21.90
2018-06-19T05:27:45.013Z,21.40
2018-06-19T05:28:45.012Z,21.20
2018-06-19T05:29:45.009Z,21.10
2018-06-19T05:30:45.002Z,20.90
2018-06-19T05:31:45.001Z,20.50
2018-06-19T05:32:45.003Z,21.10
2018-06-19T05:33:45.001Z,20.00
2018-06-19T05:34:44.995Z,20.10
2018-06-19T05:35:44.992Z,21.20
2018-06-19T05:36:44.990Z,22.20
2018-06-19T05:37:44.990Z,19.10
2018-06-19T05:38:44.993Z,19.20
2018-06-19T05:39:44.989Z,19.50
2018-06-19T05:40:44.988Z,21.00
2018-06-19T05:41:44.987Z,21.50
2018-06-19T05:42:44.981Z,20.30
2018-06-19T05:43:44.979Z,19.90
2018-06-19T05:44:44.977Z,20.40
2018-06-19T05:45:44.975Z,20.70
2018-06-19T05:46:44.980Z,20.10
2018-06-19T05:47:44.976Z,20.50
2018-06-19T05:48:44.975Z,19.60
2018-06-19T05:49:44.969Z,20.30
2018-06-19T05:50:44.973Z,21.30
2018-06-19T05:51:44.970Z,25.30
2018-06-19T05:52:45.002Z,19.10
2018-06-19T05:53:44.967Z,21.20
2018-06-19T05:54:44.962Z,20.40
2018-06-19T05:55:44.959Z,19.80
2018-06-19T05:56:44.961Z,23.30
2018-06-19T05:57:44.957Z,19.90
2018-06-19T05:58:44.960Z,21.30
2018-06-19T05:59:44.959Z,22.40
2018-06-19T06:00:44.956Z,24.70
2018-06-19T06:01:44.955Z,18.90
2018-06-19T06:02:44.949Z,19.30
2018-06-19T06:03:44.948Z,21.80
2018-06-19T06:04:44.950Z,17.50
2018-06-19T06:05:45.031Z,19.40
2018-06-19T06:06:44.945Z,18.20
2018-06-19T06:07:44.942Z,19.30
2018-06-19T06:08:44.940Z,20.20
2018-06-19T06:09:44.940Z,25.20
2018-06-19T06:10:44.943Z,17.60
2018-06-19T06:11:44.942Z,17.60
2018-06-19T06:12:44.942Z,19.00
2018-06-19T06:13:44.939Z,18.70
2018-06-19T06:14:44.933Z,20.20
2018-06-19T06:15:44.932Z,20.10
2018-06-19T06:16:44.959Z,20.40
2018-06-19T06:17:44.928Z,20.30
2018-06-19T06:18:44.932Z,19.90
2018-06-19T06:19:44.930Z,21.20
2018-06-19T06:20:44.923Z,20.00
2018-06-19T06:21:44.925Z,19.00
2018-06-19T06:22:44.926Z,19.80
2018-06-19T06:23:44.925Z,19.20
2018-06-19T06:24:44.924Z,20.60
2018-06-19T06:25:44.923Z,20.50
2018-06-19T06:26:44.917Z,19.20
2018-06-19T06:27:44.914Z,20.20
2018-06-19T06:28:44.913Z,20.60
2018-06-19T06:29:44.915Z,20.90
2018-06-19T06:30:44.917Z,20.20
2018-06-19T06:31:44.915Z,19.70
2018-06-19T06:32:44.914Z,20.30
2018-06-19T06:33:44.912Z,20.60
2018-06-19T06:34:44.907Z,20.50
2018-06-19T06:35:44.905Z,20.60
2018-06-19T06:36:44.910Z,20.40
2018-06-19T06:37:44.911Z,21.80
2018-06-19T06:38:44.903Z,20.90
2018-06-19T06:39:44.901Z,21.00
2018-06-19T06:40:44.901Z,21.10
2018-06-19T06:41:44.900Z,20.30
2018-06-19T06:42:44.904Z,21.70
2018-06-19T06:43:44.903Z,21.40
2018-06-19T06:44:44.947Z,20.70
2018-06-19T06:45:44.902Z,20.20
2018-06-19T06:46:44.895Z,20.90
2018-06-19T06:47:44.895Z,20.70
2018-06-19T06:48:44.891Z,20.40
2018-06-19T06:49:44.889Z,21.90
2018-06-19T06:50:44.893Z,21.60
2018-06-19T06:51:44.890Z,20.70
2018-06-19T06:52:44.885Z,21.80
2018-06-19T06:53:44.884Z,21.80
2018-06-19T06:54:44.890Z,21.90
2018-06-19T06:55:44.886Z,21.10
2018-06-19T06:56:44.886Z,21.20
2018-06-19T06:57:44.885Z,20.70
2018-06-19T06:58:44.879Z,20.50
2018-06-19T06:59:44.878Z,22.10
2018-06-19T07:00:44.877Z,19.80
2018-06-19T07:01:44.875Z,20.30
2018-06-19T07:02:44.878Z,20.50
2018-06-19T07:03:44.876Z,20.50
2018-06-19T07:04:44.877Z,19.90
2018-06-19T07:05:44.876Z,20.70
2018-06-19T07:06:44.871Z,21.90
2018-06-19T07:07:44.934Z,20.20
2018-06-19T07:08:44.873Z,23.20
2018-06-19T07:09:44.871Z,20.50
2018-06-19T07:10:44.865Z,20.80
2018-06-19T07:11:44.865Z,21.00
2018-06-19T07:12:44.863Z,20.50
2018-06-19T07:13:44.862Z,20.30
2018-06-19T07:14:44.868Z,21.80
2018-06-19T07:15:44.935Z,20.20
2018-06-19T07:16:44.863Z,19.80
2018-06-19T07:17:44.863Z,21.30
2018-06-19T07:18:44.858Z,20.70
2018-06-19T07:19:44.857Z,22.30
2018-06-19T07:20:44.856Z,21.00
2018-06-19T07:21:44.856Z,21.30
2018-06-19T07:22:44.860Z,20.10
2018-06-19T07:23:44.866Z,19.60
2018-06-19T07:24:44.854Z,19.40
2018-06-19T07:25:44.852Z,19.60
2018-06-19T07:26:44.857Z,20.10
2018-06-19T07:27:44.858Z,19.20
2018-06-19T07:28:44.855Z,18.30
2018-06-19T07:29:44.854Z,18.90
2018-06-19T07:30:44.852Z,18.70
2018-06-19T07:31:44.848Z,19.10
2018-06-19T07:32:44.852Z,20.40
2018-06-19T07:33:44.847Z,20.00
2018-06-19T07:34:44.851Z,21.20
2018-06-19T07:35:44.850Z,20.70
2018-06-19T07:36:44.895Z,20.50
2018-06-19T07:37:44.917Z,22.20
2018-06-19T07:38:44.844Z,21.50
2018-06-19T07:39:44.842Z,20.60
2018-06-19T07:40:44.846Z,21.20
2018-06-19T07:41:44.846Z,20.40
2018-06-19T07:42:44.841Z,21.00
2018-06-19T07:43:44.872Z,20.20
2018-06-19T07:44:44.840Z,20.60
2018-06-19T07:45:44.838Z,21.50
2018-06-19T07:46:44.842Z,19.70
2018-06-19T07:47:44.841Z,20.50
2018-06-19T07:48:44.842Z,20.40
2018-06-19T07:49:44.840Z,19.90
2018-06-19T07:50:44.837Z,20.90
2018-06-19T07:51:44.837Z,21.90
2018-06-19T07:52:44.834Z,22.20
2018-06-19T07:53:44.833Z,23.00
2018-06-19T07:54:44.839Z,21.10
2018-06-19T07:55:44.837Z,21.10
2018-06-19T07:56:44.833Z,21.60
2018-06-19T07:57:44.832Z,20.30
2018-06-19T07:58:44.837Z,21.40
2018-06-19T07:59:44.835Z,20.80
2018-06-19T08:00:44.834Z,21.70
2018-06-19T08:01:44.833Z,29.00
2018-06-19T08:02:44.828Z,26.10
2018-06-19T08:03:44.826Z,24.20
2018-06-19T08:04:44.827Z,23.40
2018-06-19T08:05:44.827Z,23.90
2018-06-19T08:06:44.830Z,24.10
2018-06-19T08:07:44.830Z,23.30
2018-06-19T08:08:44.828Z,22.70
2018-06-19T08:09:44.828Z,27.60
2018-06-19T08:10:44.823Z,24.20
2018-06-19T08:11:44.822Z,22.20
2018-06-19T08:12:44.827Z,22.40
2018-06-19T08:13:44.828Z,22.00
2018-06-19T08:14:44.821Z,22.10
2018-06-19T08:15:44.820Z,22.50
2018-06-19T08:16:44.820Z,21.30
2018-06-19T08:17:44.819Z,21.90
2018-06-19T08:18:44.866Z,21.60
2018-06-19T08:19:44.824Z,22.70
2018-06-19T08:20:44.823Z,23.40
2018-06-19T08:21:44.827Z,21.40
2018-06-19T08:22:44.872Z,20.70
2018-06-19T08:23:44.817Z,21.80
2018-06-19T08:24:44.817Z,20.60
2018-06-19T08:25:44.816Z,20.20
2018-06-19T08:26:44.821Z,20.90
2018-06-19T08:27:44.820Z,22.90
2018-06-19T08:28:44.815Z,21.30
2018-06-19T08:29:44.816Z,21.50
2018-06-19T08:30:44.821Z,20.90
2018-06-19T08:31:44.819Z,21.60
2018-06-19T08:32:44.820Z,21.60
2018-06-19T08:33:44.823Z,22.30
2018-06-19T08:34:44.815Z,21.80
2018-06-19T08:35:44.815Z,22.10
2018-06-19T08:36:44.815Z,21.80
2018-06-19T08:37:44.815Z,23.00
2018-06-19T08:38:44.821Z,22.20
2018-06-19T08:39:44.820Z,22.70
2018-06-19T08:40:44.819Z,23.00
2018-06-19T08:41:44.853Z,23.10
2018-06-19T08:42:44.815Z,25.20
2018-06-19T08:43:44.815Z,24.40
2018-06-19T08:44:44.821Z,25.30
2018-06-19T08:45:44.820Z,25.30
2018-06-19T08:46:44.816Z,25.20
2018-06-19T08:47:44.816Z,24.60
2018-06-19T08:48:44.819Z,24.60
2018-06-19T08:49:44.821Z,24.70
2018-06-19T08:50:44.823Z,25.10
2018-06-19T08:51:44.821Z,24.20
2018-06-19T08:52:44.823Z,25.40
2018-06-19T08:53:44.823Z,25.10
2018-06-19T08:54:44.818Z,25.30
2018-06-19T08:55:44.817Z,25.60
2018-06-19T08:56:44.818Z,25.30
2018-06-19T08:57:44.819Z,25.80
2018-06-19T08:58:44.824Z,25.70
2018-06-19T08:59:44.823Z,24.10
2018-06-19T09:00:44.819Z,23.70
2018-06-19T09:01:44.819Z,23.80
2018-06-19T09:02:44.826Z,24.50
2018-06-19T09:03:44.824Z,24.50
2018-06-19T09:04:44.828Z,25.00
2018-06-19T09:05:44.827Z,24.50
2018-06-19T09:06:44.824Z,25.00
2018-06-19T09:07:44.823Z,24.60
2018-06-19T09:08:44.822Z,26.10
2018-06-19T09:09:44.823Z,25.30
2018-06-19T09:10:44.829Z,25.30
2018-06-19T09:11:44.831Z,24.70
2018-06-19T09:12:44.829Z,25.20
2018-06-19T09:13:44.830Z,25.10
2018-06-19T09:14:44.829Z,24.00
2018-06-19T09:15:44.828Z,25.30
2018-06-19T09:16:44.831Z,24.40
2018-06-19T09:17:44.832Z,24.30
2018-06-19T09:18:44.828Z,25.50
2018-06-19T09:19:44.829Z,22.50
2018-06-19T09:20:44.833Z,22.90
2018-06-19T09:21:44.864Z,23.30
2018-06-19T09:22:44.836Z,23.70
2018-06-19T09:23:44.837Z,24.40
2018-06-19T09:24:44.837Z,25.10
2018-06-19T09:25:44.839Z,25.80
2018-06-19T09:26:44.834Z,24.80
2018-06-19T09:27:44.835Z,23.80
2018-06-19T09:28:44.835Z,24.30
2018-06-19T09:29:44.836Z,23.90
2018-06-19T09:30:44.841Z,24.10
2018-06-19T09:31:44.842Z,22.90
2018-06-19T09:32:44.838Z,23.70
2018-06-19T09:33:44.842Z,22.70
2018-06-19T09:34:44.845Z,23.50
2018-06-19T09:35:44.848Z,24.80
2018-06-19T09:36:44.846Z,23.70
2018-06-19T09:37:44.849Z,23.60
2018-06-19T09:38:44.844Z,24.50
2018-06-19T09:39:44.846Z,23.50
2018-06-19T09:40:44.848Z,23.20
2018-06-19T09:41:44.847Z,23.30
2018-06-19T09:42:44.854Z,24.10
2018-06-19T09:43:44.853Z,24.10
2018-06-19T09:44:44.854Z,24.30
2018-06-19T09:45:44.857Z,23.30
2018-06-19T09:46:44.852Z,23.20
2018-06-19T09:47:44.853Z,23.60
2018-06-19T09:48:44.857Z,22.10
2018-06-19T09:49:44.859Z,22.50
2018-06-19T09:50:44.856Z,23.50
2018-06-19T09:51:44.856Z,24.30
2018-06-19T09:52:44.862Z,23.60
2018-06-19T09:53:44.924Z,23.50
2018-06-19T09:54:44.869Z,23.20
2018-06-19T09:55:44.867Z,22.70
2018-06-19T09:56:44.868Z,23.10
2018-06-19T09:57:44.872Z,23.30
2018-06-19T09:58:44.869Z,23.40
2018-06-19T09:59:44.867Z,22.60
2018-06-19T10:00:44.868Z,23.40
2018-06-19T10:01:44.868Z,23.10
2018-06-19T10:02:44.875Z,23.60
2018-06-19T10:03:44.876Z,24.00
2018-06-19T10:04:44.873Z,25.80
2018-06-19T10:05:44.925Z,22.70
2018-06-19T10:06:44.883Z,22.80
2018-06-19T10:07:44.881Z,23.20
2018-06-19T10:08:44.884Z,23.00
2018-06-19T10:09:44.893Z,22.80
2018-06-19T10:10:44.882Z,23.10
2018-06-19T10:11:44.885Z,23.40
2018-06-19T10:12:44.884Z,22.90
2018-06-19T10:13:44.886Z,22.80
2018-06-19T10:14:44.897Z,23.30
2018-06-19T10:15:44.895Z,23.20
2018-06-19T10:16:44.897Z,22.40
2018-06-19T10:17:44.896Z,22.40
2018-06-19T10:18:44.895Z,21.30
2018-06-19T10:19:44.900Z,21.20
2018-06-19T10:20:44.901Z,21.30
2018-06-19T10:21:44.904Z,20.90
2018-06-19T10:22:44.901Z,21.00
2018-06-19T10:23:44.903Z,20.60
2018-06-19T10:24:44.904Z,20.90
2018-06-19T10:25:44.907Z,20.80
2018-06-19T10:26:44.914Z,21.30
2018-06-19T10:27:44.914Z,20.70
2018-06-19T10:28:44.920Z,20.00
2018-06-19T10:29:44.920Z,20.30
2018-06-19T10:30:44.924Z,20.90
2018-06-19T10:31:44.917Z,21.00
2018-06-19T10:32:44.919Z,22.30
2018-06-19T10:33:44.923Z,22.10
2018-06-19T10:34:44.931Z,21.50
2018-06-19T10:35:44.931Z,21.60
2018-06-19T10:36:44.928Z,21.30
2018-06-19T10:37:44.937Z,22.40
2018-06-19T10:38:44.939Z,20.60
2018-06-19T10:39:44.939Z,21.40
2018-06-19T10:40:44.944Z,20.90
2018-06-19T10:41:44.944Z,20.10
2018-06-19T10:42:44.942Z,20.20
2018-06-19T10:43:44.945Z,20.10
2018-06-19T10:44:44.946Z,20.20
2018-06-19T10:45:44.952Z,20.60
2018-06-19T10:46:44.961Z,18.90
2018-06-19T10:47:44.958Z,19.70
2018-06-19T10:48:44.962Z,19.30
2018-06-19T10:49:44.965Z,19.40
2018-06-19T10:50:44.962Z,20.90
2018-06-19T10:51:44.964Z,20.40
2018-06-19T10:52:45.012Z,21.00
2018-06-19T10:53:44.982Z,20.50
2018-06-19T10:54:44.973Z,19.90
2018-06-19T10:55:44.974Z,20.00
2018-06-19T10:56:44.978Z,19.20
2018-06-19T10:57:44.981Z,20.10
2018-06-19T10:58:44.988Z,19.60
2018-06-19T10:59:44.991Z,21.30
2018-06-19T11:00:44.993Z,21.20
2018-06-19T11:01:44.996Z,21.10
2018-06-19T11:02:44.995Z,20.00
2018-06-19T11:03:45.003Z,20.80
2018-06-19T11:04:45.002Z,20.30
2018-06-19T11:05:45.006Z,20.60
2018-06-19T11:06:45.014Z,19.70
2018-06-19T11:07:45.016Z,20.20
2018-06-19T11:08:45.014Z,20.40
2018-06-19T11:09:45.018Z,20.70
2018-06-19T11:10:45.026Z,20.60
2018-06-19T11:11:45.031Z,20.30
2018-06-19T11:12:45.031Z,20.50
2018-06-19T11:13:45.037Z,20.00
2018-06-19T11:14:45.036Z,19.10
2018-06-19T11:15:45.038Z,19.00
2018-06-19T11:16:45.043Z,19.40
2018-06-19T11:17:45.046Z,19.70
2018-06-19T11:18:45.055Z,19.00
2018-06-19T11:19:45.057Z,19.70
2018-06-19T11:20:45.061Z,19.80
2018-06-19T11:21:45.065Z,19.40
2018-06-19T11:22:45.065Z,19.50
2018-06-19T11:23:45.071Z,18.20
2018-06-19T11:24:45.078Z,19.50
2018-06-19T11:25:45.206Z,19.50
2018-06-19T11:26:45.081Z,18.70
2018-06-19T11:27:45.084Z,19.40
2018-06-19T11:28:45.090Z,18.80
2018-06-19T11:29:45.094Z,18.90
2018-06-19T11:30:45.104Z,18.70
2018-06-19T11:31:45.106Z,17.80
2018-06-19T11:32:45.111Z,18.00
2018-06-19T11:33:45.115Z,19.00
2018-06-19T11:34:45.115Z,18.20
2018-06-19T11:35:45.126Z,18.20
2018-06-19T11:36:45.134Z,18.10
2018-06-19T11:37:45.129Z,17.60
2018-06-19T11:38:45.136Z,17.80
2018-06-19T11:39:45.140Z,18.50
2018-06-19T11:40:45.147Z,19.40
2018-06-19T11:41:45.144Z,18.80
2018-06-19T11:42:45.153Z,18.90
2018-06-19T11:43:45.156Z,18.60
2018-06-19T11:44:45.169Z,18.50
2018-06-19T11:45:45.167Z,18.60
2018-06-19T11:46:45.166Z,18.70
2018-06-19T11:47:45.169Z,18.80
2018-06-19T11:48:45.174Z,18.90
2018-06-19T11:49:45.180Z,18.20
2018-06-19T11:50:45.188Z,17.90
2018-06-19T11:51:45.190Z,18.10
2018-06-19T11:52:45.194Z,17.50
2018-06-19T11:53:45.198Z,18.80
2018-06-19T11:54:45.199Z,17.90
2018-06-19T11:55:45.202Z,17.10
2018-06-19T11:56:45.232Z,17.70
2018-06-19T11:57:45.216Z,17.40
2018-06-19T11:58:45.217Z,17.30
2018-06-19T11:59:45.223Z,17.60
2018-06-19T12:00:45.226Z,17.30
2018-06-19T12:01:45.234Z,18.30
2018-06-19T12:02:45.240Z,17.80
2018-06-19T12:03:45.244Z,18.10
2018-06-19T12:04:45.253Z,18.10
2018-06-19T12:05:45.254Z,18.20
2018-06-19T12:06:45.267Z,18.10
2018-06-19T12:07:45.257Z,18.20
2018-06-19T12:08:45.268Z,18.40
2018-06-19T12:09:45.267Z,17.00
2018-06-19T12:10:45.277Z,18.00
2018-06-19T12:11:45.281Z,17.80
2018-06-19T12:12:45.281Z,17.80
2018-06-19T12:13:45.286Z,17.40
2018-06-19T12:14:45.296Z,17.60
2018-06-19T12:15:45.301Z,17.60
2018-06-19T12:16:45.306Z,17.40
2018-06-19T12:17:45.312Z,17.20
2018-06-19T12:18:45.311Z,16.10
2018-06-19T12:19:45.316Z,16.70
2018-06-19T12:20:45.320Z,16.60
2018-06-19T12:21:45.325Z,16.20
2018-06-19T12:22:45.335Z,16.30
2018-06-19T12:23:45.387Z,16.50
2018-06-19T12:24:45.344Z,16.40
2018-06-19T12:25:45.351Z,16.10
2018-06-19T12:26:45.350Z,16.80
2018-06-19T12:27:45.355Z,16.50
2018-06-19T12:28:45.364Z,16.30
2018-06-19T12:29:45.497Z,16.10
2018-06-19T12:30:45.368Z,16.80
2018-06-19T12:31:45.372Z,16.20
2018-06-19T12:32:45.376Z,17.10
2018-06-19T12:33:45.386Z,16.60
2018-06-19T12:34:45.390Z,16.30
2018-06-19T12:35:45.393Z,17.30
2018-06-19T12:36:45.398Z,17.40
2018-06-19T12:37:45.402Z,17.10
2018-06-19T12:38:45.402Z,17.40
2018-06-19T12:39:45.409Z,17.30
2018-06-19T12:40:45.412Z,16.90
2018-06-19T12:41:45.414Z,17.20
2018-06-19T12:42:45.424Z,16.60
2018-06-19T12:43:45.427Z,17.00
2018-06-19T12:44:45.427Z,16.50
2018-06-19T12:45:45.434Z,17.10
2018-06-19T12:46:45.445Z,16.70
2018-06-19T12:47:45.488Z,17.40
2018-06-19T12:48:45.449Z,17.20
2018-06-19T12:49:45.501Z,16.80
2018-06-19T12:50:45.453Z,16.50
2018-06-19T12:51:45.457Z,16.90
2018-06-19T12:52:45.462Z,16.70